Time;durP1;ratioP1;P1;durP2;ratioP2;P2;SDS_P1;SDS_P2;PMS_P1;PMS_P2;Temp;Humidity;BMP_temperature;BMP_pressure;BME280_temperature;BME280_humidity;BME280_pressure;Samples;Min_cycle;Max_cycle;Signal;HPM_P1;HPM_P2
2023/03/29 00:01:29;;;;;;;4.30;1.50;;;5.20;99.90;;;;;;4677177;30;20885;-83
2023/03/29 00:09:10;;;;;;;4.78;1.90;;;5.20;99.90;;;;;;4719032;30;20060;-82
2023/03/29 00:12:51;;;;;;;4.30;1.98;;;5.10;99.90;;;;;;4711447;30;20146;-83
2023/03/29 00:17:07;;;;;;;4.95;1.70;;;5.10;99.90;;;;;;4694165;30;20076;-82
2023/03/29 00:33:22;;;;;;;3.40;1.95;;;5.10;99.90;;;;;;4779991;29;20089;-82
2023/03/29 01:24:43;;;;;;;4.30;1.92;;;5.00;99.90;;;;;;4749597;29;20075;-82
2023/03/29 01:32:36;;;;;;;3.97;2.25;;;5.20;99.90;;;;;;4735133;30;20048;-82
2023/03/29 02:23:33;;;;;;;5.15;2.63;;;5.00;99.90;;;;;;4809025;29;20766;-82
2023/03/29 02:39:04;;;;;;;6.30;2.97;;;5.10;99.90;;;;;;4779356;30;20046;-83
2023/03/29 02:42:57;;;;;;;4.63;2.90;;;5.00;99.90;;;;;;4825545;29;20189;-83
2023/03/29 02:50:53;;;;;;;3.58;2.55;;;5.00;99.90;;;;;;4822475;29;20146;-84
2023/03/29 03:09:45;;;;;;;6.45;2.65;;;5.10;99.90;;;;;;4834063;29;20122;-83
2023/03/29 03:13:46;;;;;;;6.45;3.17;;;5.10;99.90;;;;;;4776479;30;20061;-84
2023/03/29 03:17:53;;;;;;;4.20;2.97;;;5.10;99.90;;;;;;4721057;30;20048;-84
2023/03/29 03:21:51;;;;;;;6.00;3.60;;;5.10;99.90;;;;;;4692347;30;20052;-84
2023/03/29 03:25:54;;;;;;;5.07;3.05;;;5.10;99.90;;;;;;4677004;30;20432;-84
2023/03/29 03:33:47;;;;;;;5.20;2.90;;;5.10;99.90;;;;;;4646916;30;20124;-84
2023/03/29 03:37:23;;;;;;;5.30;2.97;;;5.10;99.90;;;;;;4604352;31;20040;-84
2023/03/29 03:40:20;;;;;;;7.88;3.00;;;5.10;99.90;;;;;;5085602;27;20385;-83
2023/03/29 03:42:47;;;;;;;7.22;3.35;;;5.20;99.90;;;;;;5086736;28;20037;-82
2023/03/29 03:45:13;;;;;;;6.85;3.78;;;5.00;99.90;;;;;;5083312;28;20217;-82
2023/03/29 03:47:39;;;;;;;4.05;3.15;;;6.30;99.90;;;;;;5084629;28;20073;-82
2023/03/29 03:50:06;;;;;;;4.32;2.78;;;7.70;99.90;;;;;;5084161;28;20040;-82
2023/03/29 03:52:31;;;;;;;6.85;3.60;;;6.10;99.90;;;;;;5085406;28;20533;-84
2023/03/29 03:54:57;;;;;;;7.60;3.90;;;8.00;99.90;;;;;;5084055;28;20036;-84
2023/03/29 03:57:23;;;;;;;6.97;4.18;;;6.50;99.90;;;;;;5084273;28;20055;-82
2023/03/29 03:59:49;;;;;;;5.95;3.53;;;7.00;99.90;;;;;;5083882;28;20066;-82
2023/03/29 04:02:15;;;;;;;7.38;3.60;;;4.70;99.90;;;;;;5083918;28;20076;-82
2023/03/29 04:04:41;;;;;;;5.93;3.90;;;7.60;99.90;;;;;;5085661;28;20075;-82
2023/03/29 04:07:11;;;;;;;4.75;3.45;;;8.10;99.90;;;;;;5084446;28;20085;-83
2023/03/29 04:09:37;;;;;;;5.88;3.88;;;7.20;99.90;;;;;;5067656;28;20474;-82
2023/03/29 04:12:04;;;;;;;4.05;3.55;;;7.90;99.90;;;;;;5066556;28;20142;-82
2023/03/29 04:14:31;;;;;;;5.75;3.55;;;5.20;99.90;;;;;;5085608;28;20036;-83
2023/03/29 04:16:56;;;;;;;6.38;3.40;;;5.20;99.90;;;;;;5085014;28;20044;-82
2023/03/29 04:19:22;;;;;;;4.55;3.50;;;5.20;99.90;;;;;;5083002;28;20419;-83
2023/03/29 04:21:48;;;;;;;6.22;3.78;;;5.20;99.90;;;;;;5084201;28;20036;-82
2023/03/29 04:24:15;;;;;;;6.00;4.07;;;7.80;99.90;;;;;;5083484;28;20454;-83
2023/03/29 04:26:43;;;;;;;6.80;3.83;;;5.20;99.90;;;;;;5083206;28;20040;-81
2023/03/29 04:29:09;;;;;;;4.03;3.63;;;5.40;99.90;;;;;;5084890;28;20080;-82
2023/03/29 04:31:35;;;;;;;5.90;3.40;;;8.00;99.90;;;;;;5067086;28;20137;-82
2023/03/29 04:34:01;;;;;;;5.47;3.72;;;5.20;99.90;;;;;;5065947;28;20055;-82
2023/03/29 04:36:29;;;;;;;6.95;3.45;;;7.20;99.90;;;;;;5076733;28;20499;-82
2023/03/29 04:38:55;;;;;;;6.55;4.07;;;5.30;99.90;;;;;;5082867;28;20055;-85
2023/03/29 04:41:21;;;;;;;5.50;3.90;;;5.30;99.90;;;;;;5084300;28;20052;-85
2023/03/29 04:43:47;;;;;;;6.75;4.05;;;5.10;99.90;;;;;;5066630;28;20085;-82
2023/03/29 04:46:13;;;;;;;7.47;3.53;;;5.60;99.90;;;;;;5083872;28;20048;-82
2023/03/29 04:48:39;;;;;;;5.72;4.03;;;5.00;99.90;;;;;;5083099;28;20051;-83
2023/03/29 04:51:05;;;;;;;8.43;4.55;;;7.30;99.90;;;;;;5055595;28;20045;-83
2023/03/29 04:53:31;;;;;;;9.73;8.00;;;4.40;99.90;;;;;;5053284;28;20037;-82
2023/03/29 04:55:58;;;;;;;54.33;36.05;;;5.10;99.90;;;;;;5070262;28;20036;-82
2023/03/29 04:58:25;;;;;;;10.68;6.95;;;5.50;99.90;;;;;;5052876;28;20375;-82
2023/03/29 05:00:56;;;;;;;8.18;4.32;;;5.30;99.90;;;;;;5069741;28;20548;-82
2023/03/29 05:03:22;;;;;;;5.97;3.85;;;7.20;99.90;;;;;;5069036;28;20051;-82
2023/03/29 05:05:47;;;;;;;5.50;4.10;;;5.00;99.90;;;;;;5070940;28;20044;-82
2023/03/29 05:08:16;;;;;;;5.93;4.63;;;8.00;99.90;;;;;;5069114;28;20044;-82
2023/03/29 05:10:43;;;;;;;6.75;4.07;;;7.00;99.90;;;;;;5070047;28;20045;-82
2023/03/29 05:13:09;;;;;;;11.55;6.63;;;5.40;99.90;;;;;;5070423;28;20040;-82
2023/03/29 05:15:36;;;;;;;10.93;6.10;;;5.70;99.90;;;;;;5068668;28;20044;-82
2023/03/29 05:18:01;;;;;;;9.32;3.97;;;5.30;99.90;;;;;;5069223;28;20492;-82
2023/03/29 05:20:28;;;;;;;5.85;3.97;;;5.40;99.90;;;;;;5069162;28;20038;-82
2023/03/29 05:22:54;;;;;;;7.60;4.00;;;5.30;99.90;;;;;;5070021;28;20075;-82
2023/03/29 05:25:21;;;;;;;6.57;4.40;;;6.90;99.90;;;;;;5051821;28;20052;-82
2023/03/29 05:27:47;;;;;;;7.13;4.50;;;5.40;99.90;;;;;;5069486;28;20047;-82
2023/03/29 05:30:14;;;;;;;6.43;4.00;;;5.40;99.90;;;;;;5069327;28;20060;-82
2023/03/29 05:32:40;;;;;;;7.63;4.60;;;5.50;99.90;;;;;;5069363;28;20104;-82
2023/03/29 05:35:06;;;;;;;6.57;4.78;;;7.60;99.90;;;;;;5051421;28;20024;-81
2023/03/29 05:37:33;;;;;;;14.40;5.65;;;5.50;99.90;;;;;;5068588;28;20040;-83
2023/03/29 05:39:59;;;;;;;9.57;5.22;;;7.40;99.90;;;;;;5068551;28;20053;-82
2023/03/29 05:42:26;;;;;;;7.30;4.85;;;7.80;99.90;;;;;;5068898;28;20052;-82
2023/03/29 05:44:52;;;;;;;7.60;4.68;;;7.60;99.90;;;;;;5068499;28;20400;-82
2023/03/29 05:47:18;;;;;;;10.55;6.45;;;7.70;99.90;;;;;;5052108;28;20137;-82
2023/03/29 05:49:43;;;;;;;8.27;4.95;;;5.50;99.90;;;;;;5070799;28;20484;-82
2023/03/29 05:52:09;;;;;;;8.65;5.22;;;5.40;99.90;;;;;;5067558;28;20058;-82
2023/03/29 05:54:35;;;;;;;8.40;5.63;;;5.40;99.90;;;;;;5069983;28;20125;-82
2023/03/29 05:57:00;;;;;;;8.82;5.93;;;5.60;99.90;;;;;;5068666;28;20163;-82
2023/03/29 05:59:28;;;;;;;8.07;6.20;;;5.50;99.90;;;;;;5051104;28;20047;-82
2023/03/29 06:01:54;;;;;;;9.68;5.65;;;4.90;99.90;;;;;;5051132;28;20040;-82
2023/03/29 06:04:20;;;;;;;11.00;5.38;;;8.30;99.90;;;;;;5051466;28;20476;-82
2023/03/29 06:06:45;;;;;;;9.82;5.55;;;5.50;99.90;;;;;;5067966;28;20098;-82
2023/03/29 06:09:11;;;;;;;8.93;5.55;;;5.50;99.90;;;;;;5051250;28;20032;-81
2023/03/29 06:11:37;;;;;;;8.77;5.72;;;8.20;99.90;;;;;;5067926;28;20080;-82
2023/03/29 06:14:03;;;;;;;9.75;5.95;;;7.30;99.90;;;;;;5068219;28;20043;-81
2023/03/29 06:16:29;;;;;;;9.85;6.88;;;7.90;99.90;;;;;;5068342;28;20433;-82
2023/03/29 06:18:55;;;;;;;9.48;6.00;;;6.80;99.90;;;;;;5068012;28;20040;-82
2023/03/29 06:21:21;;;;;;;7.85;6.25;;;5.50;99.90;;;;;;5068229;28;20102;-82
2023/03/29 06:23:46;;;;;;;12.43;6.63;;;7.10;99.90;;;;;;5069723;28;20512;-82
2023/03/29 06:26:13;;;;;;;12.25;6.68;;;3.90;99.90;;;;;;5066588;28;20080;-83
2023/03/29 06:28:39;;;;;;;10.13;6.40;;;5.50;99.90;;;;;;5051669;28;20127;-83
2023/03/29 06:31:05;;;;;;;8.93;6.32;;;8.20;99.90;;;;;;5042733;28;20143;-83
2023/03/29 06:33:39;;;;;;;7.80;6.90;;;7.90;99.90;;;;;;5051195;28;20040;-84
2023/03/29 06:36:08;;;;;;;13.55;6.57;;;5.80;99.90;;;;;;5066908;28;20086;-83
2023/03/29 06:38:34;;;;;;;9.70;5.93;;;5.60;99.90;;;;;;5059767;28;20044;-82
2023/03/29 06:41:11;;;;;;;10.00;6.28;;;5.60;99.90;;;;;;5066792;28;20044;-84
2023/03/29 06:43:37;;;;;;;10.60;6.20;;;5.60;99.90;;;;;;5059898;28;20036;-83
2023/03/29 06:46:05;;;;;;;7.10;6.10;;;7.40;99.90;;;;;;5067298;28;20055;-83
2023/03/29 06:48:32;;;;;;;11.50;6.57;;;5.60;99.90;;;;;;5066794;28;20531;-83
2023/03/29 06:50:57;;;;;;;13.35;6.82;;;5.40;99.90;;;;;;5050686;28;20060;-84
2023/03/29 06:53:23;;;;;;;9.73;6.30;;;5.70;99.90;;;;;;5066845;28;20513;-84
2023/03/29 06:55:51;;;;;;;9.32;5.65;;;8.20;99.90;;;;;;5066244;28;20075;-84
2023/03/29 06:58:18;;;;;;;9.77;6.32;;;7.90;99.90;;;;;;5067019;28;20040;-84
2023/03/29 07:00:46;;;;;;;10.10;6.78;;;6.20;99.90;;;;;;5050238;28;20040;-84
2023/03/29 07:03:19;;;;;;;11.07;6.78;;;5.40;99.90;;;;;;5066447;28;20115;-82
2023/03/29 07:05:50;;;;;;;12.88;6.95;;;7.70;99.90;;;;;;5066935;28;20500;-84
2023/03/29 07:08:19;;;;;;;10.50;6.88;;;;;;;;;;5065808;28;20377;-83
2023/03/29 07:10:51;;;;;;;8.88;6.53;;;5.80;99.90;;;;;;5068796;28;20044;-83
2023/03/29 07:13:17;;;;;;;10.45;6.22;;;8.50;99.90;;;;;;5050439;28;20085;-82
2023/03/29 07:15:43;;;;;;;7.72;6.00;;;5.90;99.90;;;;;;5049504;28;20348;-85
2023/03/29 07:18:11;;;;;;;12.35;6.65;;;6.00;99.90;;;;;;5050033;28;20480;-83
2023/03/29 07:20:37;;;;;;;9.93;6.43;;;7.90;99.90;;;;;;5067101;28;20044;-82
2023/03/29 07:23:23;;;;;;;10.40;7.30;;;8.10;99.90;;;;;;5051863;28;20492;-83
2023/03/29 07:25:50;;;;;;;9.18;6.60;;;5.90;99.90;;;;;;5050436;28;20048;-83
2023/03/29 07:28:15;;;;;;;13.90;6.80;;;8.30;99.90;;;;;;5049597;28;20048;-83
2023/03/29 07:30:41;;;;;;;7.65;6.28;;;6.10;99.90;;;;;;5049788;28;20044;-83
2023/03/29 07:33:11;;;;;;;8.68;6.18;;;7.80;99.90;;;;;;5067705;28;20526;-83
2023/03/29 07:35:37;;;;;;;9.93;6.50;;;6.00;99.90;;;;;;5064297;28;20033;-83
2023/03/29 07:38:04;;;;;;;8.18;5.60;;;6.10;99.90;;;;;;5066178;28;20044;-83
2023/03/29 07:40:30;;;;;;;7.65;6.53;;;6.10;99.90;;;;;;5067122;28;20079;-84
2023/03/29 07:42:56;;;;;;;14.23;5.85;;;8.70;99.90;;;;;;5049609;28;20067;-83
2023/03/29 07:45:23;;;;;;;10.90;6.88;;;6.20;99.90;;;;;;5066661;28;20480;-83
2023/03/29 07:47:53;;;;;;;6.95;5.90;;;5.90;99.90;;;;;;5068571;28;20037;-84
2023/03/29 07:50:19;;;;;;;12.75;6.45;;;6.90;99.90;;;;;;5067445;28;20040;-83
2023/03/29 07:52:45;;;;;;;7.55;6.60;;;6.20;99.90;;;;;;5050389;28;20391;-83
2023/03/29 07:55:12;;;;;;;8.82;5.85;;;7.90;99.90;;;;;;5065242;28;20048;-83
2023/03/29 07:57:39;;;;;;;12.82;6.25;;;7.40;99.90;;;;;;5067340;28;20037;-83
2023/03/29 08:00:14;;;;;;;10.45;6.55;;;7.80;99.90;;;;;;5066482;28;20060;-83
2023/03/29 08:02:42;;;;;;;11.07;6.65;;;6.40;99.90;;;;;;5042703;28;20076;-83
2023/03/29 08:05:09;;;;;;;10.68;6.03;;;8.50;99.90;;;;;;5066112;28;20048;-83
2023/03/29 08:07:34;;;;;;;10.57;6.90;;;8.10;99.90;;;;;;5042201;28;20033;-83
2023/03/29 08:10:00;;;;;;;11.77;7.03;;;8.60;99.90;;;;;;5067658;28;20490;-83
2023/03/29 08:12:25;;;;;;;15.30;5.65;;;8.50;99.90;;;;;;5049712;28;20059;-83
2023/03/29 08:14:51;;;;;;;9.52;6.20;;;6.50;99.90;;;;;;5067806;28;20036;-83
2023/03/29 08:17:20;;;;;;;11.80;7.50;;;6.70;99.90;;;;;;5065505;28;20041;-83
2023/03/29 08:19:45;;;;;;;9.10;7.32;;;6.70;99.90;;;;;;5049902;28;20123;-83
2023/03/29 08:22:13;;;;;;;15.35;7.68;;;6.60;99.90;;;;;;5067378;28;20124;-83
2023/03/29 08:24:39;;;;;;;7.53;6.10;;;6.80;99.90;;;;;;5049191;28;20546;-83
2023/03/29 08:27:04;;;;;;;10.13;6.50;;;7.80;99.90;;;;;;5070616;28;20068;-83
2023/03/29 08:29:30;;;;;;;9.70;6.63;;;6.70;99.90;;;;;;5070726;28;20040;-83
2023/03/29 08:31:57;;;;;;;10.60;6.45;;;6.80;99.90;;;;;;5069683;28;20119;-83
2023/03/29 08:34:22;;;;;;;9.10;6.63;;;6.80;99.90;;;;;;5069732;28;20061;-83
2023/03/29 08:36:48;;;;;;;9.73;6.72;;;9.00;99.90;;;;;;5070447;28;20032;-83
2023/03/29 08:39:13;;;;;;;10.88;6.00;;;9.20;99.90;;;;;;5068787;28;20527;-83
2023/03/29 08:42:30;;;;;;;9.65;6.15;;;9.30;99.90;;;;;;5071436;28;20041;-84
2023/03/29 08:45:20;;;;;;;10.80;6.93;;;7.00;99.90;;;;;;5063844;28;20186;-83
2023/03/29 08:48:13;;;;;;;8.10;5.88;;;7.10;99.90;;;;;;5064748;28;20404;-83
2023/03/29 08:50:51;;;;;;;9.40;5.90;;;7.10;99.90;;;;;;5045871;28;20074;-84
2023/03/29 08:53:41;;;;;;;7.88;5.95;;;7.10;99.90;;;;;;5035468;28;20052;-83
2023/03/29 08:56:13;;;;;;;9.50;6.10;;;7.20;99.90;;;;;;5068813;28;20063;-83
2023/03/29 08:58:39;;;;;;;8.88;6.82;;;7.20;99.90;;;;;;5061398;28;20032;-84
2023/03/29 09:01:10;;;;;;;11.68;5.78;;;7.20;99.90;;;;;;5070854;28;20056;-84
2023/03/29 09:03:44;;;;;;;11.35;6.35;;;7.20;99.90;;;;;;5061822;28;20059;-83
2023/03/29 09:06:11;;;;;;;8.23;6.30;;;7.40;99.90;;;;;;5051356;28;20051;-83
2023/03/29 09:08:41;;;;;;;8.15;6.45;;;7.40;99.90;;;;;;5052712;28;20506;-83
2023/03/29 09:11:27;;;;;;;12.93;6.78;;;9.00;99.90;;;;;;5052216;28;20044;-83
2023/03/29 09:14:09;;;;;;;9.55;6.25;;;7.60;99.90;;;;;;5063181;28;20090;-83
2023/03/29 09:17:02;;;;;;;9.13;5.95;;;7.60;99.90;;;;;;5070479;28;20040;-83
2023/03/29 09:20:11;;;;;;;10.43;7.18;;;7.80;99.90;;;;;;5052354;28;20041;-83
2023/03/29 09:22:56;;;;;;;12.00;6.38;;;7.80;99.90;;;;;;5044909;28;20360;-83
2023/03/29 09:25:43;;;;;;;11.73;6.60;;;7.80;99.90;;;;;;5068592;28;20041;-84
2023/03/29 09:28:28;;;;;;;11.27;7.00;;;7.90;99.90;;;;;;5068131;28;20399;-83
2023/03/29 09:31:19;;;;;;;11.27;7.03;;;9.10;99.90;;;;;;5046598;28;20036;-83
2023/03/29 09:33:55;;;;;;;13.77;6.38;;;8.00;99.90;;;;;;5078560;28;20078;-83
2023/03/29 09:36:35;;;;;;;8.55;6.00;;;8.10;99.90;;;;;;5068075;28;20055;-82
2023/03/29 09:39:02;;;;;;;12.75;6.18;;;8.10;99.90;;;;;;5068452;28;20079;-84
2023/03/29 09:41:40;;;;;;;11.45;7.85;;;8.20;99.90;;;;;;5069658;28;20044;-83
2023/03/29 09:44:42;;;;;;;16.08;7.03;;;8.30;99.90;;;;;;5069592;28;20037;-83
2023/03/29 09:47:34;;;;;;;13.50;7.30;;;8.40;99.90;;;;;;5061894;28;20095;-83
2023/03/29 09:50:12;;;;;;;16.98;7.72;;;8.80;99.90;;;;;;5063467;28;20169;-83
2023/03/29 09:52:38;;;;;;;15.50;7.78;;;8.40;99.90;;;;;;5062279;28;20049;-83
2023/03/29 09:55:05;;;;;;;17.60;7.70;;;10.60;99.90;;;;;;5068338;28;20579;-83
2023/03/29 09:57:31;;;;;;;11.13;7.05;;;8.50;99.90;;;;;;5069916;28;20094;-83
2023/03/29 09:59:57;;;;;;;12.77;8.02;;;8.50;99.90;;;;;;5069623;28;20101;-83
2023/03/29 10:02:29;;;;;;;9.55;7.18;;;8.60;99.90;;;;;;5051126;28;20041;-83
2023/03/29 10:04:54;;;;;;;12.80;8.25;;;7.10;99.90;;;;;;5050997;28;20460;-83
2023/03/29 10:07:21;;;;;;;18.13;8.40;;;8.50;99.90;;;;;;5067974;28;20048;-83
2023/03/29 10:09:49;;;;;;;15.20;8.45;;;10.20;99.90;;;;;;5067812;28;20032;-83
2023/03/29 10:12:15;;;;;;;20.50;9.13;;;10.80;99.90;;;;;;5069482;28;20074;-83
2023/03/29 10:14:48;;;;;;;16.30;8.23;;;9.90;99.90;;;;;;5051410;28;20044;-83
2023/03/29 10:17:41;;;;;;;19.73;9.18;;;8.80;99.90;;;;;;5068539;28;20067;-83
2023/03/29 10:20:17;;;;;;;16.00;9.05;;;8.90;99.90;;;;;;5048557;28;20135;-82
2023/03/29 10:22:55;;;;;;;17.30;9.90;;;8.90;99.90;;;;;;5044224;28;20487;-83
2023/03/29 10:25:29;;;;;;;18.50;10.32;;;8.90;99.90;;;;;;5067285;28;20139;-82
2023/03/29 10:28:03;;;;;;;16.93;9.90;;;10.30;99.90;;;;;;5068049;28;20033;-82
2023/03/29 10:30:33;;;;;;;12.63;9.15;;;9.00;99.90;;;;;;5068066;28;20044;-82
2023/03/29 10:33:00;;;;;;;17.65;10.00;;;10.30;99.90;;;;;;5051313;28;20097;-83
2023/03/29 10:35:33;;;;;;;17.17;9.73;;;9.50;99.90;;;;;;5067320;28;20080;-83
2023/03/29 10:38:02;;;;;;;17.63;11.52;;;9.20;99.90;;;;;;5068197;28;20037;-83
2023/03/29 10:40:33;;;;;;;15.02;9.35;;;9.20;99.90;;;;;;5051202;28;20063;-82
2023/03/29 10:43:31;;;;;;;15.27;11.40;;;9.40;99.90;;;;;;5068740;28;20051;-83
2023/03/29 10:46:11;;;;;;;22.15;11.68;;;9.40;99.90;;;;;;5028017;28;20051;-83
2023/03/29 10:48:39;;;;;;;20.50;12.27;;;9.50;99.90;;;;;;5059184;28;20037;-82
2023/03/29 10:51:06;;;;;;;17.10;12.05;;;9.60;99.90;;;;;;5033109;28;20040;-83
2023/03/29 10:53:35;;;;;;;20.65;13.10;;;9.70;99.90;;;;;;5067716;28;20315;-83
2023/03/29 10:56:18;;;;;;;16.27;10.70;;;9.90;99.90;;;;;;5068145;28;20049;-83
2023/03/29 10:59:20;;;;;;;17.02;12.57;;;10.00;99.90;;;;;;5043183;28;20041;-83
2023/03/29 11:02:13;;;;;;;19.42;12.77;;;10.10;99.90;;;;;;5062002;28;20036;-83
2023/03/29 11:05:06;;;;;;;18.90;12.35;;;10.30;99.90;;;;;;5059113;28;20392;-83
2023/03/29 11:07:50;;;;;;;14.93;11.70;;;10.40;99.90;;;;;;5012673;28;20053;-82
2023/03/29 11:10:41;;;;;;;17.23;11.90;;;10.50;99.90;;;;;;5050335;28;20055;-82
2023/03/29 11:13:26;;;;;;;16.40;11.30;;;10.60;99.90;;;;;;5066438;28;20052;-84
2023/03/29 11:16:18;;;;;;;18.25;11.73;;;10.70;99.90;;;;;;5061179;28;20033;-82
2023/03/29 11:18:52;;;;;;;15.90;11.98;;;10.80;99.90;;;;;;5043233;28;20490;-82
2023/03/29 11:21:59;;;;;;;17.73;11.43;;;10.80;99.90;;;;;;5049668;28;20416;-82
2023/03/29 11:24:27;;;;;;;22.02;13.07;;;10.80;99.90;;;;;;5067114;28;20048;-82
2023/03/29 11:26:59;;;;;;;14.65;11.00;;;11.10;99.90;;;;;;5068356;28;20149;-81
2023/03/29 11:29:42;;;;;;;14.82;10.60;;;10.80;99.90;;;;;;5068031;28;20140;-82
2023/03/29 11:32:19;;;;;;;15.45;10.70;;;10.90;99.90;;;;;;5068146;28;20044;-82
2023/03/29 11:34:58;;;;;;;16.25;12.07;;;10.90;99.90;;;;;;5060613;28;20090;-82
2023/03/29 11:37:48;;;;;;;16.80;11.23;;;12.90;99.90;;;;;;5068293;28;20056;-82
2023/03/29 11:40:38;;;;;;;17.80;11.27;;;10.80;99.90;;;;;;5065586;28;20114;-82
2023/03/29 11:43:12;;;;;;;15.73;10.73;;;10.80;99.90;;;;;;5050133;28;20494;-82
2023/03/29 11:45:52;;;;;;;18.00;11.45;;;10.90;99.90;;;;;;5068196;28;20044;-82
2023/03/29 11:48:25;;;;;;;14.35;10.65;;;12.00;99.90;;;;;;5065929;28;20037;-82
2023/03/29 11:51:09;;;;;;;14.10;10.25;;;12.60;99.90;;;;;;5067424;28;20051;-83
2023/03/29 11:53:42;;;;;;;18.55;10.98;;;11.00;99.90;;;;;;5067198;28;20559;-82
2023/03/29 11:56:14;;;;;;;17.55;10.45;;;11.00;99.90;;;;;;5065554;28;20155;-82
2023/03/29 11:58:47;;;;;;;16.77;10.50;;;11.10;99.90;;;;;;5042079;28;20040;-82
2023/03/29 12:01:17;;;;;;;11.45;8.55;;;11.20;99.90;;;;;;5052133;28;20052;-82
2023/03/29 12:03:55;;;;;;;13.02;10.05;;;12.20;99.90;;;;;;5064824;28;20074;-84
2023/03/29 12:06:32;;;;;;;14.00;10.15;;;11.30;99.90;;;;;;5070605;28;20056;-82
2023/03/29 12:09:11;;;;;;;13.90;10.27;;;11.40;99.90;;;;;;5070629;28;20101;-84
2023/03/29 12:11:44;;;;;;;13.45;9.65;;;12.80;99.90;;;;;;5071025;28;20185;-82
2023/03/29 12:14:19;;;;;;;10.38;8.95;;;11.40;99.90;;;;;;5053881;28;20049;-81
2023/03/29 12:17:03;;;;;;;13.20;9.07;;;11.70;99.90;;;;;;5079207;28;20044;-83
2023/03/29 12:19:34;;;;;;;12.23;9.73;;;11.60;99.90;;;;;;5071849;28;20048;-84
2023/03/29 12:22:06;;;;;;;11.10;9.32;;;11.70;99.90;;;;;;5071390;28;20511;-83
2023/03/29 12:24:37;;;;;;;12.73;9.27;;;11.80;99.90;;;;;;5069486;28;20063;-83
2023/03/29 12:27:20;;;;;;;13.57;9.13;;;11.90;99.90;;;;;;5070374;28;20112;-82
2023/03/29 12:30:06;;;;;;;12.50;9.63;;;11.90;99.90;;;;;;5062848;28;20387;-83
2023/03/29 12:33:10;;;;;;;13.10;8.90;;;12.00;99.90;;;;;;5054097;28;20118;-83
2023/03/29 12:35:58;;;;;;;12.65;8.85;;;12.50;99.90;;;;;;5069919;28;20623;-83
2023/03/29 12:38:29;;;;;;;10.50;8.88;;;12.00;99.90;;;;;;5070369;28;20127;-83
2023/03/29 12:41:03;;;;;;;11.98;8.55;;;12.10;99.90;;;;;;5071433;28;20040;-81
2023/03/29 12:43:37;;;;;;;12.55;8.20;;;12.10;99.90;;;;;;5069558;28;20079;-83
2023/03/29 12:46:07;;;;;;;10.13;9.07;;;12.10;99.90;;;;;;5052589;28;20037;-83
2023/03/29 12:48:40;;;;;;;10.63;9.20;;;13.60;99.90;;;;;;5070155;28;20233;-83
2023/03/29 12:51:33;;;;;;;12.10;8.43;;;12.10;99.90;;;;;;5068930;28;20115;-83
2023/03/29 12:54:20;;;;;;;11.85;8.57;;;13.20;99.90;;;;;;5064106;28;20057;-83
2023/03/29 12:56:59;;;;;;;11.20;8.57;;;12.20;99.90;;;;;;5046226;28;20081;-83
2023/03/29 12:59:42;;;;;;;13.98;8.50;;;12.20;99.90;;;;;;5052409;28;20044;-84
2023/03/29 13:02:14;;;;;;;13.57;8.55;;;12.20;99.90;;;;;;5052867;28;20131;-83
2023/03/29 13:04:56;;;;;;;12.85;9.23;;;12.20;99.90;;;;;;5068917;28;20098;-83
2023/03/29 13:07:27;;;;;;;11.88;7.93;;;12.20;99.90;;;;;;5069355;28;20471;-84
2023/03/29 13:09:56;;;;;;;16.35;9.35;;;12.30;99.90;;;;;;5069549;28;20055;-83
2023/03/29 13:12:41;;;;;;;11.75;9.48;;;12.60;99.90;;;;;;5068189;28;20119;-84
2023/03/29 13:15:22;;;;;;;11.93;8.77;;;13.90;99.90;;;;;;5069014;28;20376;-81
2023/03/29 13:18:27;;;;;;;9.48;8.13;;;12.10;99.90;;;;;;5063752;28;20071;-84
2023/03/29 13:21:21;;;;;;;11.27;9.15;;;12.10;99.90;;;;;;5078459;28;20507;-84
2023/03/29 13:24:01;;;;;;;14.38;9.30;;;12.00;99.90;;;;;;5061995;28;20047;-83
2023/03/29 13:27:00;;;;;;;11.40;9.30;;;12.10;99.90;;;;;;5051940;28;20169;-84
2023/03/29 13:29:54;;;;;;;13.73;9.23;;;12.10;99.90;;;;;;5070514;28;20119;-84
2023/03/29 13:32:47;;;;;;;10.55;9.35;;;12.10;99.90;;;;;;5052362;28;20040;-84
2023/03/29 13:35:40;;;;;;;12.40;8.95;;;12.10;99.90;;;;;;5069273;28;20115;-84
2023/03/29 13:38:27;;;;;;;14.38;9.45;;;12.20;99.90;;;;;;5065617;28;20076;-84
2023/03/29 13:40:52;;;;;;;16.38;11.05;;;13.70;99.90;;;;;;5045019;28;20052;-84
2023/03/29 13:43:36;;;;;;;15.88;9.65;;;12.20;99.90;;;;;;5070070;28;20040;-84
2023/03/29 13:46:21;;;;;;;12.90;9.57;;;12.30;99.90;;;;;;5068146;28;20048;-84
2023/03/29 13:49:11;;;;;;;13.68;8.00;;;12.30;99.90;;;;;;5061082;28;20048;-84
2023/03/29 13:51:40;;;;;;;12.70;9.15;;;12.40;99.90;;;;;;5069090;28;20052;-84
2023/03/29 13:54:35;;;;;;;12.80;9.38;;;13.00;99.90;;;;;;5050795;28;20040;-83
2023/03/29 13:57:07;;;;;;;14.65;9.80;;;12.30;99.90;;;;;;5064014;28;20098;-82
2023/03/29 13:59:41;;;;;;;10.57;9.45;;;12.40;99.90;;;;;;5068782;28;20059;-84
2023/03/29 14:02:33;;;;;;;15.30;8.60;;;12.50;99.90;;;;;;5050784;28;20178;-84
2023/03/29 14:05:02;;;;;;;15.02;8.90;;;12.50;99.90;;;;;;5054567;28;20057;-83
2023/03/29 14:07:32;;;;;;;14.88;9.48;;;12.60;99.90;;;;;;5052166;28;20045;-84
2023/03/29 14:09:59;;;;;;;13.82;8.88;;;12.70;99.90;;;;;;5051121;28;20392;-84
2023/03/29 14:12:34;;;;;;;12.82;8.55;;;12.80;99.90;;;;;;5068166;28;20045;-84
2023/03/29 14:15:03;;;;;;;11.25;8.18;;;12.70;99.90;;;;;;5050773;28;20302;-84
2023/03/29 14:17:30;;;;;;;14.52;8.68;;;14.00;99.90;;;;;;5068571;28;20045;-84
2023/03/29 14:19:58;;;;;;;12.25;9.07;;;12.90;99.90;;;;;;5051309;28;20119;-84
2023/03/29 14:22:29;;;;;;;12.35;9.40;;;12.90;99.90;;;;;;5050399;28;20040;-83
2023/03/29 14:24:57;;;;;;;13.63;8.95;;;12.90;99.90;;;;;;5068482;28;20282;-84
2023/03/29 14:27:22;;;;;;;12.68;8.32;;;13.00;99.90;;;;;;5051073;28;20056;-83
2023/03/29 14:29:51;;;;;;;11.18;8.63;;;14.60;99.90;;;;;;5051025;28;20037;-84
2023/03/29 14:32:27;;;;;;;12.25;8.85;;;13.00;99.90;;;;;;5069211;28;20059;-84
2023/03/29 14:34:53;;;;;;;10.77;8.00;;;12.20;99.90;;;;;;5045474;28;20037;-83
2023/03/29 14:37:28;;;;;;;11.13;8.75;;;13.10;99.90;;;;;;5066975;28;20047;-83
2023/03/29 14:39:55;;;;;;;14.75;10.85;;;13.00;99.90;;;;;;5067574;28;20127;-83
2023/03/29 14:42:26;;;;;;;12.85;9.23;;;13.00;99.90;;;;;;5052152;28;20157;-83
2023/03/29 14:45:00;;;;;;;12.60;8.88;;;12.20;99.90;;;;;;5067261;28;20070;-83
2023/03/29 14:47:29;;;;;;;10.65;8.60;;;13.10;99.90;;;;;;5067576;28;20084;-84
2023/03/29 14:49:57;;;;;;;11.05;8.95;;;13.10;99.90;;;;;;5067730;28;20032;-84
2023/03/29 14:52:25;;;;;;;12.65;8.00;;;13.10;99.90;;;;;;5067199;28;20476;-83
2023/03/29 14:54:55;;;;;;;11.45;8.70;;;13.10;99.90;;;;;;5067190;28;20036;-84
2023/03/29 14:57:25;;;;;;;11.45;8.80;;;13.10;99.90;;;;;;5068024;28;20204;-83
2023/03/29 14:59:59;;;;;;;12.75;7.65;;;13.10;99.90;;;;;;5050470;28;20047;-83
2023/03/29 15:02:29;;;;;;;12.98;8.20;;;13.20;99.90;;;;;;5050022;28;20113;-83
2023/03/29 15:05:03;;;;;;;10.02;8.43;;;13.20;99.90;;;;;;5049314;28;20080;-84
2023/03/29 15:07:31;;;;;;;9.60;8.07;;;13.20;99.90;;;;;;5050654;28;20123;-83
2023/03/29 15:10:03;;;;;;;11.02;7.57;;;13.10;99.90;;;;;;5034528;28;20044;-84
2023/03/29 15:12:31;;;;;;;9.30;8.07;;;13.10;99.90;;;;;;5049684;28;20448;-83
2023/03/29 15:14:58;;;;;;;7.72;6.88;;;13.10;99.90;;;;;;5066660;28;20054;-83
2023/03/29 15:17:37;;;;;;;9.68;7.88;;;13.10;99.90;;;;;;5050230;28;20041;-83
2023/03/29 15:20:14;;;;;;;8.40;7.30;;;13.10;99.90;;;;;;5049264;28;20559;-83
2023/03/29 15:23:01;;;;;;;8.73;7.18;;;12.00;99.90;;;;;;5050520;28;20143;-83
2023/03/29 15:25:36;;;;;;;10.88;7.07;;;13.10;99.90;;;;;;5067190;28;20037;-83
2023/03/29 15:28:02;;;;;;;8.50;6.40;;;13.10;99.90;;;;;;5066792;28;20040;-83
2023/03/29 15:30:33;;;;;;;7.70;6.05;;;13.50;99.90;;;;;;5067241;28;20074;-83
2023/03/29 15:33:38;;;;;;;9.48;6.75;;;13.00;99.90;;;;;;5066288;28;20036;-81
2023/03/29 15:36:06;;;;;;;7.25;6.07;;;13.00;99.90;;;;;;5047731;28;20079;-83
2023/03/29 15:38:32;;;;;;;10.40;7.10;;;13.00;99.90;;;;;;5049979;28;20101;-81
2023/03/29 15:40:58;;;;;;;7.38;6.10;;;13.60;99.90;;;;;;5066391;28;20089;-83
2023/03/29 15:43:24;;;;;;;6.95;6.20;;;15.00;99.90;;;;;;5068109;28;20119;-82
2023/03/29 15:45:50;;;;;;;7.32;6.32;;;12.90;99.90;;;;;;5068035;28;20119;-84
2023/03/29 15:48:24;;;;;;;7.97;6.63;;;12.90;99.90;;;;;;5066082;28;20166;-82
2023/03/29 15:50:50;;;;;;;;;;;14.50;99.90;;;;;;5059911;28;20033;-82
2023/03/29 15:53:17;;;;;;;13.98;8.52;;;13.70;99.90;;;;;;5049916;28;20005;-82
2023/03/29 15:55:47;;;;;;;8.05;6.70;;;12.80;99.90;;;;;;5067208;28;20173;-82
2023/03/29 15:58:15;;;;;;;7.82;5.95;;;13.50;99.90;;;;;;5066457;28;20036;-82
2023/03/29 16:00:44;;;;;;;9.43;7.03;;;12.70;99.90;;;;;;5050833;28;20496;-81
2023/03/29 16:03:14;;;;;;;10.57;6.43;;;12.60;99.90;;;;;;5050443;28;20056;-82
2023/03/29 16:05:42;;;;;;;6.63;5.88;;;12.60;99.90;;;;;;5050056;28;20102;-85
2023/03/29 16:08:09;;;;;;;10.90;7.20;;;13.30;99.90;;;;;;5048587;28;20045;-82